createdAt,value
2022-12-06T00:00:20.620Z,11.73
2022-12-06T00:04:23.295Z,11.43
2022-12-06T00:08:27.337Z,12.83
2022-12-06T00:12:30.341Z,11.83
2022-12-06T00:16:33.392Z,11.93
2022-12-06T00:20:36.442Z,11.67
2022-12-06T00:24:40.950Z,11.10
2022-12-06T00:28:43.681Z,12.20
2022-12-06T00:32:46.396Z,11.27
2022-12-06T00:36:49.355Z,11.40
2022-12-06T00:40:59.613Z,11.13
2022-12-06T00:45:02.237Z,11.70
2022-12-06T00:49:06.370Z,11.83
2022-12-06T00:53:09.571Z,11.30
2022-12-06T00:57:13.612Z,10.50
2022-12-06T01:01:17.987Z,10.30
2022-12-06T01:05:20.753Z,10.13
2022-12-06T01:09:23.395Z,9.97
2022-12-06T01:13:27.448Z,9.70
2022-12-06T01:17:30.402Z,9.77
2022-12-06T01:21:33.171Z,9.57
2022-12-06T01:25:36.656Z,9.37
2022-12-06T01:29:40.844Z,10.17
2022-12-06T01:33:43.764Z,9.20
2022-12-06T01:37:46.377Z,9.67
2022-12-06T01:41:49.035Z,9.33
2022-12-06T01:45:53.385Z,8.93
2022-12-06T01:49:59.570Z,8.37
2022-12-06T01:54:03.822Z,8.57
2022-12-06T01:58:10.498Z,8.80
2022-12-06T02:02:14.729Z,9.27
2022-12-06T02:06:17.786Z,9.10
2022-12-06T02:10:20.829Z,9.37
2022-12-06T02:14:25.400Z,9.90
2022-12-06T02:18:35.547Z,9.90
2022-12-06T02:23:12.228Z,9.73
2022-12-06T02:27:30.224Z,9.90
2022-12-06T02:31:37.728Z,8.20
2022-12-06T02:35:42.303Z,9.80
2022-12-06T02:39:48.797Z,9.60
2022-12-06T02:43:56.490Z,8.97
2022-12-06T02:48:02.870Z,8.73
2022-12-06T02:52:05.976Z,8.30
2022-12-06T02:56:09.026Z,8.77
2022-12-06T03:00:38.032Z,8.23
2022-12-06T03:04:54.169Z,8.27
2022-12-06T03:09:02.985Z,8.07
2022-12-06T03:13:10.519Z,8.00
2022-12-06T03:17:17.908Z,7.97
2022-12-06T03:21:26.811Z,8.37
2022-12-06T03:25:30.254Z,9.53
2022-12-06T03:29:34.639Z,9.43
2022-12-06T03:33:42.224Z,9.07
2022-12-06T03:37:50.548Z,8.27
2022-12-06T03:41:56.972Z,7.80
2022-12-06T03:46:04.036Z,7.37
2022-12-06T03:50:10.459Z,7.33
2022-12-06T03:54:14.605Z,7.63
2022-12-06T03:58:17.478Z,7.80
2022-12-06T04:02:20.099Z,8.57
2022-12-06T04:06:22.856Z,8.23
2022-12-06T04:10:27.364Z,8.03
2022-12-06T04:14:32.361Z,7.57
2022-12-06T04:18:36.158Z,8.00
2022-12-06T04:22:55.732Z,8.70
2022-12-06T04:27:20.178Z,8.67
2022-12-06T04:31:41.266Z,8.80
2022-12-06T04:36:01.323Z,7.73
2022-12-06T04:40:04.141Z,8.20
2022-12-06T04:44:07.412Z,8.30
2022-12-06T04:48:15.082Z,8.30
2022-12-06T04:52:18.300Z,8.07
2022-12-06T04:56:20.962Z,8.47
2022-12-06T05:00:25.139Z,8.33
2022-12-06T05:04:28.112Z,8.07
2022-12-06T05:08:30.803Z,8.13
2022-12-06T05:12:33.432Z,8.00
2022-12-06T05:16:37.423Z,7.60
2022-12-06T05:20:40.122Z,8.00
2022-12-06T05:24:42.748Z,7.80
2022-12-06T05:28:46.614Z,7.40
2022-12-06T05:32:56.721Z,7.67
2022-12-06T05:36:59.649Z,7.57
2022-12-06T05:41:04.322Z,7.70
2022-12-06T05:45:08.082Z,7.27
2022-12-06T05:49:12.081Z,7.80
2022-12-06T05:53:14.731Z,7.80
2022-12-06T05:57:17.553Z,7.50
2022-12-06T06:01:20.178Z,7.37
2022-12-06T06:05:24.315Z,7.43
2022-12-06T06:09:27.498Z,7.60
2022-12-06T06:13:30.709Z,7.33
2022-12-06T06:17:33.447Z,7.83
2022-12-06T06:21:37.712Z,7.43
2022-12-06T06:25:40.787Z,6.93
2022-12-06T06:29:45.508Z,7.60
2022-12-06T06:33:48.497Z,7.13
2022-12-06T06:37:52.768Z,7.17
2022-12-06T06:41:55.427Z,6.93
2022-12-06T06:45:59.667Z,6.63
2022-12-06T06:50:02.719Z,7.00
2022-12-06T06:54:07.244Z,6.87
2022-12-06T06:58:10.188Z,6.77
2022-12-06T07:02:13.583Z,7.00
2022-12-06T07:06:16.654Z,6.40
2022-12-06T07:10:21.359Z,7.00
2022-12-06T07:14:24.081Z,6.30
2022-12-06T07:18:27.154Z,6.30
2022-12-06T07:22:31.109Z,8.00
2022-12-06T07:26:35.113Z,6.30
2022-12-06T07:30:37.993Z,4.57
2022-12-06T07:34:40.683Z,4.50
2022-12-06T07:38:43.777Z,5.50
2022-12-06T07:43:05.063Z,6.50
2022-12-06T07:47:07.796Z,6.00
2022-12-06T07:51:10.469Z,6.50
2022-12-06T07:55:13.444Z,6.23
2022-12-06T07:59:17.738Z,6.53
2022-12-06T08:03:20.344Z,6.60
2022-12-06T08:07:23.908Z,6.53
2022-12-06T08:11:26.689Z,6.70
2022-12-06T08:15:30.663Z,6.60
2022-12-06T08:19:33.569Z,6.30
2022-12-06T08:23:36.263Z,6.80
2022-12-06T08:27:38.897Z,7.17
2022-12-06T08:31:44.138Z,6.60
2022-12-06T08:35:46.888Z,6.93
2022-12-06T08:39:49.531Z,6.63
2022-12-06T08:43:52.190Z,7.00
2022-12-06T08:47:56.157Z,6.73
2022-12-06T08:51:59.737Z,7.03
2022-12-06T08:56:03.141Z,6.87
2022-12-06T09:00:07.196Z,6.17
2022-12-06T09:04:12.528Z,7.00
2022-12-06T09:08:15.370Z,7.17
2022-12-06T09:12:18.323Z,6.60
2022-12-06T09:16:22.406Z,6.57
2022-12-06T09:20:26.761Z,7.30
2022-12-06T09:24:29.752Z,6.47
2022-12-06T09:28:34.002Z,6.07
2022-12-06T09:32:36.867Z,6.60
2022-12-06T09:36:45.033Z,7.17
2022-12-06T09:40:54.086Z,5.73
2022-12-06T09:45:12.549Z,6.23
2022-12-06T09:49:31.669Z,6.03
2022-12-06T09:53:45.546Z,6.83
2022-12-06T09:57:54.388Z,6.70
2022-12-06T10:02:06.913Z,6.67
2022-12-06T10:06:12.805Z,6.20
2022-12-06T10:10:22.887Z,5.77
2022-12-06T10:14:38.909Z,7.37
2022-12-06T10:19:00.550Z,5.70
2022-12-06T10:23:13.746Z,6.17
2022-12-06T10:27:24.163Z,5.63
2022-12-06T10:31:29.372Z,5.00
2022-12-06T10:35:41.991Z,4.80
2022-12-06T10:39:52.031Z,4.10
2022-12-06T10:43:59.729Z,4.10
2022-12-06T10:48:04.031Z,3.80
2022-12-06T10:52:21.719Z,4.00
2022-12-06T10:56:27.951Z,3.83
2022-12-06T11:00:35.952Z,4.00
2022-12-06T11:04:39.168Z,3.57
2022-12-06T11:08:43.943Z,4.20
2022-12-06T11:12:46.704Z,4.07
2022-12-06T11:16:55.243Z,3.80
2022-12-06T11:21:01.649Z,3.80
2022-12-06T11:25:08.094Z,4.27
2022-12-06T11:29:12.443Z,3.87
2022-12-06T11:33:16.480Z,4.83
2022-12-06T11:37:21.083Z,3.13
2022-12-06T11:41:26.307Z,3.00
2022-12-06T11:45:31.483Z,2.73
2022-12-06T11:49:38.399Z,2.90
2022-12-06T11:53:48.859Z,2.70
2022-12-06T11:57:53.568Z,2.63
2022-12-06T12:01:58.173Z,2.00
2022-12-06T12:06:19.197Z,2.30
2022-12-06T12:10:35.717Z,2.70
2022-12-06T12:14:40.771Z,2.40
2022-12-06T12:18:51.100Z,2.10
2022-12-06T12:22:58.723Z,2.47
2022-12-06T12:27:01.406Z,2.17
2022-12-06T12:31:10.664Z,2.43
2022-12-06T12:35:28.113Z,2.13
2022-12-06T12:39:34.794Z,2.00
2022-12-06T12:43:37.510Z,2.23
2022-12-06T12:47:40.462Z,2.40
2022-12-06T12:51:47.933Z,2.00
2022-12-06T12:56:07.442Z,2.00
2022-12-06T13:00:15.433Z,2.10
2022-12-06T13:04:42.774Z,2.50
2022-12-06T13:08:45.603Z,2.53
2022-12-06T13:12:52.098Z,2.30
2022-12-06T13:16:56.978Z,2.40
2022-12-06T13:21:03.033Z,2.57
2022-12-06T13:25:09.353Z,2.47
2022-12-06T13:29:22.233Z,2.70
2022-12-06T13:33:27.279Z,2.80
2022-12-06T13:37:35.159Z,2.80
2022-12-06T13:42:13.027Z,2.90
2022-12-06T13:46:28.722Z,2.90
2022-12-06T13:50:52.309Z,3.10
2022-12-06T13:54:55.213Z,4.53
2022-12-06T13:58:59.430Z,4.20
2022-12-06T14:03:11.813Z,5.00
2022-12-06T14:11:22.141Z,6.90
2022-12-06T14:15:25.129Z,6.83
2022-12-06T14:19:32.812Z,5.50
2022-12-06T14:23:43.129Z,4.50
2022-12-06T14:27:48.100Z,4.60
2022-12-06T14:31:51.969Z,4.73
2022-12-06T14:35:56.931Z,4.80
2022-12-06T14:40:11.773Z,4.73
2022-12-06T14:44:28.865Z,4.63
2022-12-06T14:48:53.785Z,4.80
2022-12-06T14:53:03.889Z,4.47
2022-12-06T14:57:23.769Z,4.07
2022-12-06T15:01:28.631Z,4.47
2022-12-06T15:05:33.240Z,3.90
2022-12-06T15:09:46.455Z,4.43
2022-12-06T15:14:12.533Z,4.97
2022-12-06T15:18:22.591Z,3.97
2022-12-06T15:22:27.907Z,4.20
2022-12-06T15:26:31.923Z,4.50
2022-12-06T15:30:34.599Z,4.33
2022-12-06T15:34:37.540Z,4.27
2022-12-06T15:38:40.200Z,5.57
2022-12-06T15:42:44.530Z,5.60
2022-12-06T15:46:49.433Z,4.93
2022-12-06T15:50:52.166Z,5.27
2022-12-06T15:54:54.887Z,6.40
2022-12-06T15:58:58.928Z,5.47
2022-12-06T16:03:02.838Z,5.40
2022-12-06T16:07:05.514Z,5.33
2022-12-06T16:11:12.555Z,5.57
2022-12-06T16:15:16.941Z,5.67
2022-12-06T16:19:19.591Z,5.47
2022-12-06T16:24:11.844Z,5.83
2022-12-06T16:28:04.192Z,5.83
2022-12-06T16:32:08.540Z,5.77
2022-12-06T16:36:13.740Z,6.27
2022-12-06T16:40:20.912Z,6.90
2022-12-06T16:44:23.858Z,7.13
2022-12-06T16:48:28.162Z,5.60
2022-12-06T16:52:30.816Z,5.30
2022-12-06T16:56:37.439Z,7.10
2022-12-06T17:00:42.889Z,6.97
2022-12-06T17:04:46.958Z,5.60
2022-12-06T17:08:49.864Z,5.30
2022-12-06T17:12:52.783Z,4.90
2022-12-06T17:16:56.951Z,6.10
2022-12-06T17:21:01.679Z,5.23
2022-12-06T17:25:05.203Z,5.40
2022-12-06T17:29:08.756Z,5.30
2022-12-06T17:33:11.698Z,5.10
2022-12-06T17:37:16.914Z,5.43
2022-12-06T17:41:38.974Z,5.23
2022-12-06T17:45:41.753Z,5.40
2022-12-06T17:49:44.439Z,6.18
2022-12-06T17:53:48.584Z,5.17
2022-12-06T17:57:51.924Z,5.70
2022-12-06T18:02:15.321Z,5.50
2022-12-06T18:06:19.030Z,5.17
2022-12-06T18:10:23.474Z,4.77
2022-12-06T18:14:26.215Z,4.88
2022-12-06T18:18:29.715Z,5.00
2022-12-06T18:22:32.330Z,4.67
2022-12-06T18:26:36.664Z,4.93
2022-12-06T18:30:39.382Z,5.10
2022-12-06T18:34:42.261Z,4.87
2022-12-06T18:38:44.935Z,4.30
2022-12-06T18:42:49.072Z,4.73
2022-12-06T18:46:52.041Z,5.27
2022-12-06T18:50:55.270Z,5.40
2022-12-06T18:54:57.996Z,5.13
2022-12-06T18:59:03.220Z,5.60
2022-12-06T19:03:05.895Z,5.57
2022-12-06T19:07:08.552Z,5.23
2022-12-06T19:11:17.725Z,5.10
2022-12-06T19:15:21.800Z,5.33
2022-12-06T19:19:25.753Z,8.13
2022-12-06T19:23:28.748Z,5.07
2022-12-06T19:27:31.471Z,3.87
2022-12-06T19:31:35.542Z,4.03
2022-12-06T19:35:38.271Z,6.90
2022-12-06T19:39:40.970Z,5.07
2022-12-06T19:44:01.224Z,4.37
2022-12-06T19:48:05.639Z,4.40
2022-12-06T19:52:08.290Z,4.20
2022-12-06T19:56:12.850Z,4.17
2022-12-06T20:00:19.647Z,4.50
2022-12-06T20:04:28.398Z,3.87
2022-12-06T20:08:31.263Z,4.20
2022-12-06T20:12:33.950Z,4.33
2022-12-06T20:16:37.781Z,4.50
2022-12-06T20:20:41.783Z,3.67
2022-12-06T20:24:44.732Z,4.43
2022-12-06T20:28:48.766Z,4.73
2022-12-06T20:32:51.484Z,4.57
2022-12-06T20:36:55.865Z,4.10
2022-12-06T20:40:58.486Z,4.67
2022-12-06T20:45:01.274Z,4.53
2022-12-06T20:49:05.551Z,4.70
2022-12-06T20:53:09.789Z,4.90
2022-12-06T20:57:12.578Z,4.73
2022-12-06T21:01:15.490Z,4.87
2022-12-06T21:05:19.106Z,5.53
2022-12-06T21:09:23.305Z,4.70
2022-12-06T21:13:26.635Z,4.60
2022-12-06T21:17:29.865Z,4.17
2022-12-06T21:21:34.564Z,4.70
2022-12-06T21:25:39.105Z,4.53
2022-12-06T21:29:42.587Z,4.33
2022-12-06T21:33:45.269Z,4.60
2022-12-06T21:37:48.411Z,4.60
2022-12-06T21:41:53.109Z,4.00
2022-12-06T21:45:55.787Z,4.03
2022-12-06T21:49:58.897Z,4.20
2022-12-06T21:54:01.752Z,4.47
2022-12-06T21:58:05.745Z,4.20
2022-12-06T22:02:10.583Z,3.93
2022-12-06T22:06:14.353Z,4.63
2022-12-06T22:10:17.020Z,3.93
2022-12-06T22:14:20.999Z,4.60
2022-12-06T22:18:23.666Z,4.78
2022-12-06T22:22:26.321Z,4.17
2022-12-06T22:26:31.245Z,3.87
2022-12-06T22:30:35.625Z,4.00
2022-12-06T22:34:38.234Z,4.00
2022-12-06T22:38:40.940Z,3.97
2022-12-06T22:42:43.676Z,3.97
2022-12-06T22:46:48.001Z,4.30
2022-12-06T22:50:50.675Z,3.80
2022-12-06T22:54:53.341Z,3.70
2022-12-06T22:58:56.971Z,4.50
2022-12-06T23:03:00.996Z,4.00
2022-12-06T23:07:03.693Z,4.20
2022-12-06T23:11:07.955Z,4.17
2022-12-06T23:15:11.404Z,4.40
2022-12-06T23:19:15.766Z,4.07
2022-12-06T23:23:18.630Z,4.50
2022-12-06T23:27:21.280Z,4.30
2022-12-06T23:31:25.114Z,4.60
2022-12-06T23:35:29.438Z,4.37
2022-12-06T23:39:32.076Z,4.53
2022-12-06T23:43:35.045Z,4.47
2022-12-06T23:47:37.727Z,4.33
2022-12-06T23:51:41.994Z,4.63
2022-12-06T23:55:44.602Z,4.67
2022-12-06T23:59:47.314Z,4.40
